Time;durP1;ratioP1;P1;durP2;ratioP2;P2;SDS_P1;SDS_P2;PMS_P1;PMS_P2;Temp;Humidity;BMP_temperature;BMP_pressure;BME280_temperature;BME280_humidity;BME280_pressure;Samples;Min_cycle;Max_cycle;Signal;HPM_P1;HPM_P2
2022/12/07 00:00:23;;;;;;;47.10;20.75;;;;;;;;;;10388260;28;20063;-77
2022/12/07 00:05:23;;;;;;;48.13;22.47;;;;;;;;;;10387757;28;20573;-72
2022/12/07 00:10:24;;;;;;;49.08;21.05;;;;;;;;;;10387765;28;20422;-77
2022/12/07 00:15:24;;;;;;;47.67;20.40;;;;;;;;;;10388105;28;20435;-78
2022/12/07 00:20:24;;;;;;;55.03;24.33;;;;;;;;;;10405459;28;20456;-79
2022/12/07 00:25:24;;;;;;;59.03;25.05;;;;;;;;;;10405674;28;20033;-76
2022/12/07 00:30:25;;;;;;;58.87;25.33;;;;;;;;;;10387278;28;20026;-72
2022/12/07 00:35:25;;;;;;;52.53;25.02;;;;;;;;;;10387273;28;20024;-77
2022/12/07 00:40:25;;;;;;;55.33;25.23;;;;;;;;;;10386220;28;20031;-72
2022/12/07 00:45:25;;;;;;;53.30;22.70;;;;;;;;;;10404057;28;20029;-78
2022/12/07 00:50:26;;;;;;;52.67;22.70;;;;;;;;;;10403941;28;20036;-79
2022/12/07 00:55:26;;;;;;;52.17;22.05;;;;;;;;;;10384081;28;20029;-72
2022/12/07 01:00:26;;;;;;;46.72;21.23;;;;;;;;;;10384088;28;20033;-77
2022/12/07 01:05:27;;;;;;;46.15;20.50;;;;;;;;;;10374461;28;20026;-74
2022/12/07 01:10:27;;;;;;;46.60;21.90;;;;;;;;;;10355856;28;20581;-76
2022/12/07 01:15:27;;;;;;;49.05;21.73;;;;;;;;;;10353760;28;20520;-73
2022/12/07 01:20:28;;;;;;;54.95;20.42;;;;;;;;;;10384597;28;20030;-76
2022/12/07 01:25:28;;;;;;;55.47;22.65;;;;;;;;;;10379045;28;20496;-74
2022/12/07 01:30:28;;;;;;;55.20;24.33;;;;;;;;;;10385381;28;20029;-79
2022/12/07 01:35:29;;;;;;;59.15;25.42;;;;;;;;;;10385585;28;20099;-74
2022/12/07 01:40:29;;;;;;;63.03;25.85;;;;;;;;;;10384852;28;20494;-80
2022/12/07 01:45:39;;;;;;;42.97;17.10;;;;;;;;;;10385166;28;20500;-77
2022/12/07 01:50:39;;;;;;;62.00;25.05;;;;;;;;;;10384553;28;20021;-80
2022/12/07 01:55:41;;;;;;;57.55;24.98;;;;;;;;;;10383871;28;20021;-73
2022/12/07 02:00:42;;;;;;;55.70;24.20;;;;;;;;;;10367993;28;20476;-74
2022/12/07 02:05:44;;;;;;;63.27;24.53;;;;;;;;;;10359749;28;20014;-78
2022/12/07 02:10:45;;;;;;;66.60;24.83;;;;;;;;;;10360642;28;20355;-77
2022/12/07 02:16:18;;;;;;;52.43;23.03;;;;;;;;;;10342263;28;20056;-78
2022/12/07 02:21:30;;;;;;;59.45;25.98;;;;;;;;;;10338097;28;20038;-76
2022/12/07 02:26:49;;;;;;;58.55;24.73;;;;;;;;;;10365203;28;20140;-76
2022/12/07 02:31:56;;;;;;;64.80;28.33;;;;;;;;;;10400254;28;20142;-73
2022/12/07 02:37:00;;;;;;;71.18;29.63;;;;;;;;;;10382643;28;20121;-72
2022/12/07 02:42:09;;;;;;;66.88;28.95;;;;;;;;;;10366246;28;20013;-73
2022/12/07 02:47:12;;;;;;;61.78;28.92;;;;;;;;;;10378556;28;20025;-73
2022/12/07 02:52:12;;;;;;;66.47;28.73;;;;;;;;;;10400304;28;20033;-72
2022/12/07 02:57:31;;;;;;;67.07;27.77;;;;;;;;;;10370309;28;20025;-78
2022/12/07 03:02:50;;;;;;;70.95;29.42;;;;;;;;;;10382095;28;20025;-78
2022/12/07 03:08:04;;;;;;;68.00;28.52;;;;;;;;;;10382313;28;20507;-80
2022/12/07 03:13:09;;;;;;;63.10;29.15;;;;;;;;;;10382087;28;20510;-74
2022/12/07 03:18:10;;;;;;;62.75;29.40;;;;;;;;;;10364210;28;20538;-71
2022/12/07 03:23:12;;;;;;;60.03;26.75;;;;;;;;;;10384120;28;20483;-78
2022/12/07 03:28:14;;;;;;;66.75;27.02;;;;;;;;;;10387912;28;20018;-73
2022/12/07 03:33:21;;;;;;;59.40;26.02;;;;;;;;;;10407194;28;20025;-79
2022/12/07 03:38:41;;;;;;;62.53;25.48;;;;;;;;;;10388475;28;20084;-78
2022/12/07 03:43:42;;;;;;;66.30;26.88;;;;;;;;;;10406003;28;20037;-73
2022/12/07 03:49:01;;;;;;;56.92;25.92;;;;;;;;;;10388776;28;20044;-77
2022/12/07 03:54:08;;;;;;;70.80;26.92;;;;;;;;;;10383559;28;20030;-75
2022/12/07 03:59:10;;;;;;;59.72;26.83;;;;;;;;;;10346533;28;20065;-78
2022/12/07 04:04:11;;;;;;;70.20;27.08;;;;;;;;;;10347531;28;20018;-74
2022/12/07 04:09:11;;;;;;;67.63;27.25;;;;;;;;;;10346324;28;20479;-74
2022/12/07 04:14:18;;;;;;;65.03;25.67;;;;;;;;;;10345364;28;20484;-79
2022/12/07 04:19:19;;;;;;;66.43;27.02;;;;;;;;;;10361383;28;20049;-73
2022/12/07 04:24:19;;;;;;;60.15;26.05;;;;;;;;;;10345347;28;20017;-73
2022/12/07 04:29:20;;;;;;;68.20;25.70;;;;;;;;;;10344545;28;20022;-74
2022/12/07 04:34:21;;;;;;;65.15;26.58;;;;;;;;;;10347381;28;20029;-73
2022/12/07 04:39:31;;;;;;;68.40;28.57;;;;;;;;;;10344882;28;20043;-78
2022/12/07 04:44:31;;;;;;;60.35;27.15;;;;;;;;;;10345010;28;20072;-77
2022/12/07 04:49:31;;;;;;;62.47;26.55;;;;;;;;;;10362178;28;20022;-73
2022/12/07 04:54:32;;;;;;;69.88;27.67;;;;;;;;;;10348348;28;20022;-74
2022/12/07 04:59:32;;;;;;;60.13;24.40;;;;;;;;;;10388702;28;20029;-76
2022/12/07 05:04:32;;;;;;;65.10;25.85;;;;;;;;;;10388137;28;20017;-81
2022/12/07 05:09:32;;;;;;;61.03;27.38;;;;;;;;;;10379805;28;20420;-74
2022/12/07 05:14:33;;;;;;;74.45;35.00;;;;;;;;;;10386068;28;20117;-78
2022/12/07 05:19:33;;;;;;;75.65;31.25;;;;;;;;;;10379382;28;20076;-71
2022/12/07 05:24:33;;;;;;;65.93;27.48;;;;;;;;;;10411621;28;20045;-72
2022/12/07 05:29:33;;;;;;;67.65;27.10;;;;;;;;;;10406497;28;20036;-71
2022/12/07 05:34:34;;;;;;;66.88;27.70;;;;;;;;;;10401371;28;20068;-75
2022/12/07 05:39:35;;;;;;;85.97;29.67;;;;;;;;;;10382664;28;20071;-72
2022/12/07 05:44:35;;;;;;;63.63;26.02;;;;;;;;;;10398371;28;20833;-78
2022/12/07 05:49:35;;;;;;;63.83;27.20;;;;;;;;;;10394733;28;20022;-74
2022/12/07 05:54:36;;;;;;;60.72;27.13;;;;;;;;;;10401155;28;20086;-80
2022/12/07 05:59:36;;;;;;;65.50;26.13;;;;;;;;;;10382832;28;20025;-73
2022/12/07 06:04:38;;;;;;;66.07;28.30;;;;;;;;;;10381880;28;20018;-75
2022/12/07 06:09:38;;;;;;;64.20;27.60;;;;;;;;;;10373434;28;20048;-76
2022/12/07 06:14:39;;;;;;;56.65;25.50;;;;;;;;;;10379325;28;20049;-76
2022/12/07 06:19:39;;;;;;;52.33;24.58;;;;;;;;;;10396555;28;20033;-80
2022/12/07 06:24:40;;;;;;;57.00;23.83;;;;;;;;;;10382102;28;20018;-75
2022/12/07 06:29:40;;;;;;;65.97;25.52;;;;;;;;;;10381474;28;20025;-75
2022/12/07 06:34:41;;;;;;;57.40;26.15;;;;;;;;;;10381380;28;20063;-77
2022/12/07 06:39:41;;;;;;;60.80;23.35;;;;;;;;;;10382089;28;20085;-78
2022/12/07 06:44:42;;;;;;;65.35;24.48;;;;;;;;;;10399573;28;20025;-78
2022/12/07 06:49:42;;;;;;;61.08;25.80;;;;;;;;;;10399060;28;20344;-78
2022/12/07 06:54:42;;;;;;;55.17;26.40;;;;;;;;;;10397439;28;20017;-74
2022/12/07 06:59:43;;;;;;;58.97;24.75;;;;;;;;;;10383570;28;20291;-78
2022/12/07 07:04:43;;;;;;;66.97;27.42;;;;;;;;;;10389374;28;20104;-77
2022/12/07 07:09:44;;;;;;;56.55;24.52;;;;;;;;;;10393534;28;20514;-74
2022/12/07 07:14:44;;;;;;;64.68;25.48;;;;;;;;;;10389132;28;20056;-75
2022/12/07 07:19:44;;;;;;;62.08;25.33;;;;;;;;;;10389390;28;20068;-80
2022/12/07 07:24:45;;;;;;;58.55;26.27;;;;;;;;;;10388446;28;20423;-76
2022/12/07 07:29:45;;;;;;;58.10;26.58;;;;;;;;;;10379167;28;20377;-79
2022/12/07 07:34:45;;;;;;;61.17;23.60;;;;;;;;;;10386118;28;20366;-74
2022/12/07 07:39:47;;;;;;;60.90;24.92;;;;;;;;;;10388068;28;20033;-76
2022/12/07 07:44:47;;;;;;;69.43;25.98;;;;;;;;;;10388480;28;20148;-74
2022/12/07 07:49:47;;;;;;;71.65;27.02;;;;;;;;;;10407721;28;20372;-74
2022/12/07 07:54:47;;;;;;;63.72;25.83;;;;;;;;;;10392869;28;20557;-74
2022/12/07 07:59:48;;;;;;;60.35;24.50;;;;;;;;;;10397561;28;20096;-75
2022/12/07 08:04:48;;;;;;;53.40;23.85;;;;;;;;;;10370220;28;20427;-75
2022/12/07 08:09:48;;;;;;;65.13;25.70;;;;;;;;;;10387788;28;20546;-77
2022/12/07 08:14:48;;;;;;;54.53;22.58;;;;;;;;;;10375833;28;20545;-77
2022/12/07 08:19:52;;;;;;;69.88;24.45;;;;;;;;;;10371347;28;20518;-75
2022/12/07 08:24:52;;;;;;;47.20;18.38;;;;;;;;;;10378501;28;20045;-80
2022/12/07 08:29:52;;;;;;;53.67;22.60;;;;;;;;;;10373371;28;20124;-80
2022/12/07 08:34:52;;;;;;;50.10;21.63;;;;;;;;;;10364849;28;20030;-79
2022/12/07 08:39:54;;;;;;;50.90;22.20;;;;;;;;;;10375605;28;20124;-74
2022/12/07 08:44:54;;;;;;;53.45;23.45;;;;;;;;;;10371720;28;20029;-77
2022/12/07 08:49:54;;;;;;;51.95;21.25;;;;;;;;;;10368291;28;20030;-77
2022/12/07 08:54:55;;;;;;;68.90;22.40;;;;;;;;;;10367988;28;20498;-77
2022/12/07 08:59:55;;;;;;;48.38;21.40;;;;;;;;;;10363559;28;20435;-73
2022/12/07 09:04:56;;;;;;;49.35;21.10;;;;;;;;;;10371710;28;20025;-79
2022/12/07 09:09:56;;;;;;;54.73;20.87;;;;;;;;;;10373330;28;20021;-74
2022/12/07 09:14:56;;;;;;;48.55;19.73;;;;;;;;;;10372174;28;20956;-73
2022/12/07 09:19:57;;;;;;;52.30;22.27;;;;;;;;;;10365178;28;20039;-77
2022/12/07 09:24:58;;;;;;;48.30;19.48;;;;;;;;;;10362577;28;20325;-76
2022/12/07 09:30:00;;;;;;;47.28;21.02;;;;;;;;;;10375461;28;20108;-74
2022/12/07 09:35:00;;;;;;;53.42;22.40;;;;;;;;;;10353804;28;20061;-73
2022/12/07 09:40:01;;;;;;;48.03;21.55;;;;;;;;;;10350231;28;20116;-74
2022/12/07 09:45:05;;;;;;;45.58;21.38;;;;;;;;;;10366926;28;20014;-76
2022/12/07 09:50:16;;;;;;;50.22;21.95;;;;;;;;;;10368395;28;20032;-74
2022/12/07 09:55:21;;;;;;;49.92;22.38;;;;;;;;;;10376330;28;20056;-73
2022/12/07 10:00:22;;;;;;;51.53;22.17;;;;;;;;;;10362799;28;20277;-75
2022/12/07 10:05:30;;;;;;;53.80;21.23;;;;;;;;;;10372770;28;20025;-74
2022/12/07 10:10:32;;;;;;;39.45;17.63;;;;;;;;;;10389023;28;20036;-73
2022/12/07 10:15:40;;;;;;;41.00;18.50;;;;;;;;;;10377758;28;20045;-74
2022/12/07 10:20:41;;;;;;;47.70;19.70;;;;;;;;;;10382549;28;20029;-75
2022/12/07 10:25:42;;;;;;;56.63;19.48;;;;;;;;;;10387044;28;20451;-74
2022/12/07 10:30:53;;;;;;;42.72;17.88;;;;;;;;;;10389928;28;20038;-77
2022/12/07 10:35:53;;;;;;;40.67;17.75;;;;;;;;;;10384527;28;20033;-79
2022/12/07 10:41:07;;;;;;;42.45;16.90;;;;;;;;;;10362430;28;20558;-75
2022/12/07 10:46:07;;;;;;;41.95;16.58;;;;;;;;;;10363389;28;20047;-74
2022/12/07 10:51:16;;;;;;;41.17;18.00;;;;;;;;;;10371531;28;20051;-75
2022/12/07 10:56:36;;;;;;;35.67;16.73;;;;;;;;;;10371713;28;20030;-80
2022/12/07 11:01:57;;;;;;;37.88;16.02;;;;;;;;;;10381338;28;20026;-75
2022/12/07 11:07:06;;;;;;;38.80;17.73;;;;;;;;;;10386558;28;20029;-75
2022/12/07 11:12:24;;;;;;;40.03;17.08;;;;;;;;;;10371506;28;20514;-74
2022/12/07 11:17:24;;;;;;;;;;;;;;;;;;10370967;28;20072;-78
2022/12/07 11:22:48;;;;;;;45.53;19.17;;;;;;;;;;10388672;28;19913;-74
2022/12/07 11:27:49;;;;;;;44.75;19.20;;;;;;;;;;10362499;28;20561;-79
2022/12/07 11:33:15;;;;;;;40.83;17.80;;;;;;;;;;10372549;28;20108;-77
2022/12/07 11:38:36;;;;;;;52.10;20.00;;;;;;;;;;10393493;28;20148;-75
2022/12/07 11:43:36;;;;;;;45.22;20.58;;;;;;;;;;10359487;28;20431;-78
2022/12/07 11:48:45;;;;;;;38.20;17.95;;;;;;;;;;10386881;28;20037;-77
2022/12/07 11:53:57;;;;;;;36.55;17.50;;;;;;;;;;10376681;28;20041;-76
2022/12/07 11:59:04;;;;;;;43.78;19.05;;;;;;;;;;10375448;28;20064;-75
2022/12/07 12:04:04;;;;;;;43.08;19.50;;;;;;;;;;10373988;28;20022;-75
2022/12/07 12:09:09;;;;;;;42.67;17.98;;;;;;;;;;10387694;28;20436;-77
2022/12/07 12:14:19;;;;;;;42.75;20.40;;;;;;;;;;10383854;28;20079;-74
2022/12/07 12:19:25;;;;;;;52.05;18.67;;;;;;;;;;10376294;28;20482;-80
2022/12/07 12:24:28;;;;;;;44.53;18.48;;;;;;;;;;10378998;28;20084;-74
2022/12/07 12:29:40;;;;;;;44.35;18.80;;;;;;;;;;10376610;28;20029;-78
2022/12/07 12:34:46;;;;;;;38.20;17.88;;;;;;;;;;10386840;28;20083;-79
2022/12/07 12:40:06;;;;;;;51.42;21.40;;;;;;;;;;10381411;28;20705;-79
2022/12/07 12:45:36;;;;;;;35.05;15.63;;;;;;;;;;10382121;28;20022;-74
2022/12/07 12:50:37;;;;;;;42.17;16.60;;;;;;;;;;10366793;28;20036;-75
2022/12/07 12:55:53;;;;;;;43.72;17.30;;;;;;;;;;10392651;28;20040;-74
2022/12/07 13:01:12;;;;;;;49.25;16.17;;;;;;;;;;10368633;28;20029;-73
2022/12/07 13:06:31;;;;;;;35.08;15.20;;;;;;;;;;10389154;28;20025;-75
2022/12/07 13:11:34;;;;;;;28.83;14.45;;;;;;;;;;10393253;28;20032;-74
2022/12/07 13:16:39;;;;;;;40.25;18.88;;;;;;;;;;10382207;28;20666;-75
2022/12/07 13:21:43;;;;;;;35.50;13.77;;;;;;;;;;10384932;28;20109;-76
2022/12/07 13:26:44;;;;;;;40.72;14.07;;;;;;;;;;10382428;28;20017;-74
2022/12/07 13:31:46;;;;;;;31.52;13.20;;;;;;;;;;10382495;28;20025;-74
2022/12/07 13:36:47;;;;;;;28.25;12.10;;;;;;;;;;10382175;28;20344;-73
2022/12/07 13:41:51;;;;;;;25.77;11.48;;;;;;;;;;10382424;28;20028;-74
2022/12/07 13:47:10;;;;;;;32.55;13.85;;;;;;;;;;10382795;28;20265;-74
2022/12/07 13:52:16;;;;;;;28.20;13.13;;;;;;;;;;10381600;28;20025;-77
2022/12/07 13:57:17;;;;;;;47.22;15.55;;;;;;;;;;10399307;28;20022;-77
2022/12/07 14:02:19;;;;;;;32.28;12.93;;;;;;;;;;10379596;28;20156;-74
2022/12/07 14:07:27;;;;;;;32.30;12.77;;;;;;;;;;10381803;28;20434;-77
2022/12/07 14:12:28;;;;;;;35.03;14.02;;;;;;;;;;10371836;28;20498;-77
2022/12/07 14:17:29;;;;;;;37.42;14.13;;;;;;;;;;10374785;28;20045;-77
2022/12/07 14:22:37;;;;;;;42.42;13.90;;;;;;;;;;10380405;28;20515;-78
2022/12/07 14:27:37;;;;;;;34.67;12.85;;;;;;;;;;10368262;28;20499;-74
2022/12/07 14:32:38;;;;;;;42.07;13.47;;;;;;;;;;10397939;28;20040;-75
2022/12/07 14:37:39;;;;;;;35.47;13.40;;;;;;;;;;10379786;28;20032;-74
2022/12/07 14:42:39;;;;;;;34.15;13.05;;;;;;;;;;10379487;28;20021;-73
2022/12/07 14:47:40;;;;;;;38.53;14.77;;;;;;;;;;10383100;28;20013;-74
2022/12/07 14:52:43;;;;;;;39.65;14.40;;;;;;;;;;10380963;28;20109;-76
2022/12/07 14:57:43;;;;;;;38.55;14.40;;;;;;;;;;10380901;28;20018;-79
2022/12/07 15:02:47;;;;;;;42.65;16.05;;;;;;;;;;10378049;28;20400;-74
2022/12/07 15:07:48;;;;;;;44.33;15.25;;;;;;;;;;10379588;28;20083;-75
2022/12/07 15:12:48;;;;;;;40.50;16.90;;;;;;;;;;10371204;28;20052;-75
2022/12/07 15:17:48;;;;;;;38.30;18.87;;;;;;;;;;10396136;28;20462;-77
2022/12/07 15:22:49;;;;;;;54.97;20.83;;;;;;;;;;10365967;28;20056;-75
2022/12/07 15:27:49;;;;;;;50.50;18.48;;;;;;;;;;10373103;28;20029;-78
2022/12/07 15:32:50;;;;;;;40.87;16.53;;;;;;;;;;10399541;28;20112;-77
2022/12/07 15:37:50;;;;;;;45.17;18.58;;;;;;;;;;10383795;28;20028;-75
2022/12/07 15:42:52;;;;;;;62.85;20.58;;;;;;;;;;10409049;28;20021;-74
2022/12/07 15:47:52;;;;;;;47.83;19.25;;;;;;;;;;10374001;28;20029;-78
2022/12/07 15:52:52;;;;;;;43.33;19.37;;;;;;;;;;10385421;28;20025;-76
2022/12/07 15:57:52;;;;;;;50.40;19.15;;;;;;;;;;10403689;28;20283;-75
2022/12/07 16:02:53;;;;;;;47.22;19.08;;;;;;;;;;10381896;28;20551;-79
2022/12/07 16:07:54;;;;;;;54.08;20.10;;;;;;;;;;10386333;28;20021;-77
2022/12/07 16:12:54;;;;;;;50.78;19.52;;;;;;;;;;10378631;28;20057;-74
2022/12/07 16:17:55;;;;;;;61.67;19.40;;;;;;;;;;10379343;28;20143;-75
2022/12/07 16:22:55;;;;;;;57.38;23.15;;;;;;;;;;10384163;28;20018;-79
2022/12/07 16:27:56;;;;;;;67.35;23.83;;;;;;;;;;10401126;28;20025;-75
2022/12/07 16:32:58;;;;;;;60.13;24.00;;;;;;;;;;10383911;28;20513;-74
2022/12/07 16:37:58;;;;;;;64.95;24.40;;;;;;;;;;10394786;28;20034;-76
2022/12/07 16:42:58;;;;;;;51.42;21.67;;;;;;;;;;10383455;28;20061;-75
2022/12/07 16:47:59;;;;;;;66.45;22.73;;;;;;;;;;10384410;28;20028;-78
2022/12/07 16:52:59;;;;;;;55.47;21.98;;;;;;;;;;10396392;28;20095;-79
2022/12/07 16:57:59;;;;;;;52.05;20.30;;;;;;;;;;10379774;28;20041;-74
2022/12/07 17:03:00;;;;;;;50.95;22.17;;;;;;;;;;10356952;28;20105;-80
2022/12/07 17:08:01;;;;;;;57.90;23.20;;;;;;;;;;10376497;28;20021;-73
2022/12/07 17:13:02;;;;;;;65.03;21.83;;;;;;;;;;10373297;28;20025;-78
2022/12/07 17:18:02;;;;;;;61.42;21.45;;;;;;;;;;10377904;28;20077;-73
2022/12/07 17:23:02;;;;;;;65.67;23.17;;;;;;;;;;10384105;28;20412;-78
2022/12/07 17:28:03;;;;;;;48.53;21.38;;;;;;;;;;10376353;28;20041;-76
2022/12/07 17:33:03;;;;;;;62.00;24.53;;;;;;;;;;10374134;28;20036;-77
2022/12/07 17:38:03;;;;;;;62.65;22.33;;;;;;;;;;10362349;28;20022;-73
2022/12/07 17:43:04;;;;;;;74.68;24.63;;;;;;;;;;10396279;28;20136;-78
2022/12/07 17:48:04;;;;;;;72.25;25.73;;;;;;;;;;10376286;28;20037;-74
2022/12/07 17:53:09;;;;;;;67.60;22.05;;;;;;;;;;10383005;28;20049;-74
2022/12/07 17:58:09;;;;;;;66.15;25.10;;;;;;;;;;10376032;28;20060;-74
2022/12/07 18:03:10;;;;;;;78.22;23.92;;;;;;;;;;10382527;28;20025;-74
2022/12/07 18:08:10;;;;;;;58.03;23.60;;;;;;;;;;10378056;28;20110;-75
2022/12/07 18:18:29;;;;;;;59.75;23.65;;;;;;;;;;10380284;28;20058;-74
2022/12/07 18:23:30;;;;;;;64.47;26.08;;;;;;;;;;10380663;28;20638;-76
2022/12/07 18:28:30;;;;;;;71.18;25.83;;;;;;;;;;10370001;28;20087;-73
2022/12/07 18:33:31;;;;;;;60.17;26.80;;;;;;;;;;10367792;28;20032;-73
2022/12/07 18:38:32;;;;;;;72.00;28.77;;;;;;;;;;10370005;28;20029;-74
2022/12/07 18:43:32;;;;;;;80.70;27.40;;;;;;;;;;10369185;28;20029;-74
2022/12/07 18:48:32;;;;;;;86.83;28.47;;;;;;;;;;10350016;28;20498;-77
2022/12/07 18:53:34;;;;;;;65.00;29.30;;;;;;;;;;10371900;28;20477;-78
2022/12/07 18:58:34;;;;;;;79.45;31.52;;;;;;;;;;10358567;28;20103;-77
2022/12/07 19:03:34;;;;;;;70.10;31.07;;;;;;;;;;10385352;28;20096;-75
2022/12/07 19:08:36;;;;;;;81.60;34.67;;;;;;;;;;10370926;28;20111;-74
2022/12/07 19:13:36;;;;;;;77.80;31.80;;;;;;;;;;10373709;28;20512;-76
2022/12/07 19:18:36;;;;;;;79.75;31.35;;;;;;;;;;10379185;28;20045;-74
2022/12/07 19:23:37;;;;;;;69.28;29.77;;;;;;;;;;10391449;28;20032;-74
2022/12/07 19:28:37;;;;;;;71.28;29.38;;;;;;;;;;10363286;28;20037;-74
2022/12/07 19:33:37;;;;;;;75.63;29.13;;;;;;;;;;10388476;28;20087;-74
2022/12/07 19:38:38;;;;;;;71.17;28.40;;;;;;;;;;10382724;28;20029;-75
2022/12/07 19:43:38;;;;;;;67.10;27.77;;;;;;;;;;10368521;28;20076;-76
2022/12/07 19:48:39;;;;;;;74.10;27.23;;;;;;;;;;10357438;28;20372;-76
2022/12/07 19:53:39;;;;;;;65.63;27.08;;;;;;;;;;10351029;28;20041;-75
2022/12/07 19:58:39;;;;;;;75.88;28.17;;;;;;;;;;10355899;28;20032;-74
2022/12/07 20:03:39;;;;;;;85.28;31.05;;;;;;;;;;10353387;28;20328;-76
2022/12/07 20:08:40;;;;;;;89.57;30.92;;;;;;;;;;10356635;28;20102;-74
2022/12/07 20:13:40;;;;;;;72.80;31.35;;;;;;;;;;10356284;28;20037;-75
2022/12/07 20:18:41;;;;;;;78.70;30.75;;;;;;;;;;10360164;28;20504;-74
2022/12/07 20:23:41;;;;;;;71.73;32.07;;;;;;;;;;10347373;28;20121;-73
2022/12/07 20:28:45;;;;;;;88.57;30.48;;;;;;;;;;10363415;28;20043;-78
2022/12/07 20:33:45;;;;;;;83.30;28.75;;;;;;;;;;10362699;28;20087;-74
2022/12/07 20:38:46;;;;;;;72.85;29.77;;;;;;;;;;10363390;28;20637;-75
2022/12/07 20:43:46;;;;;;;76.38;34.33;;;;;;;;;;10359899;28;20462;-76
2022/12/07 20:48:46;;;;;;;82.20;33.25;;;;;;;;;;10359863;28;20026;-74
2022/12/07 20:53:46;;;;;;;69.63;33.65;;;;;;;;;;10366332;28;20064;-74
2022/12/07 20:58:48;;;;;;;83.93;36.50;;;;;;;;;;10392191;28;20110;-76
2022/12/07 21:03:49;;;;;;;94.93;35.55;;;;;;;;;;10369777;28;20124;-75
2022/12/07 21:08:50;;;;;;;82.00;36.27;;;;;;;;;;10370105;28;20090;-75
2022/12/07 21:13:50;;;;;;;69.40;26.50;;;;;;;;;;10369139;28;20033;-75
2022/12/07 21:18:52;;;;;;;56.50;24.33;;;;;;;;;;10388961;28;20052;-74
2022/12/07 21:23:53;;;;;;;72.80;27.05;;;;;;;;;;10360428;28;20371;-75
2022/12/07 21:28:54;;;;;;;64.00;24.75;;;;;;;;;;10343790;28;20633;-76
2022/12/07 21:33:56;;;;;;;71.82;26.50;;;;;;;;;;10361302;28;20022;-80
2022/12/07 21:38:57;;;;;;;62.40;25.58;;;;;;;;;;10343830;28;20068;-76
2022/12/07 21:43:57;;;;;;;58.05;25.33;;;;;;;;;;10360034;28;20064;-76
2022/12/07 21:48:59;;;;;;;67.78;26.77;;;;;;;;;;10361809;28;20117;-75
2022/12/07 21:54:00;;;;;;;52.45;19.20;;;;;;;;;;10344765;28;20049;-81
2022/12/07 21:59:03;;;;;;;45.15;19.45;;;;;;;;;;10364324;28;20467;-75
2022/12/07 22:04:04;;;;;;;45.10;17.73;;;;;;;;;;10348771;28;20111;-74
2022/12/07 22:09:05;;;;;;;51.15;21.98;;;;;;;;;;10356641;28;20115;-77
2022/12/07 22:19:25;;;;;;;48.17;22.08;;;;;;;;;;10368390;28;20049;-80
2022/12/07 22:24:25;;;;;;;58.30;25.30;;;;;;;;;;10345428;28;20018;-80
2022/12/07 22:29:25;;;;;;;53.30;23.80;;;;;;;;;;10342751;28;20018;-75
2022/12/07 22:34:26;;;;;;;58.80;24.02;;;;;;;;;;10342503;28;20269;-76
2022/12/07 22:39:26;;;;;;;54.33;23.83;;;;;;;;;;10357825;28;20018;-76
2022/12/07 22:44:32;;;;;;;58.70;25.50;;;;;;;;;;10341860;28;20432;-79
2022/12/07 22:49:32;;;;;;;62.33;25.30;;;;;;;;;;10378203;28;20503;-75
2022/12/07 22:54:33;;;;;;;66.38;23.50;;;;;;;;;;10380686;28;20112;-75
2022/12/07 22:59:33;;;;;;;56.72;25.85;;;;;;;;;;10379623;28;20079;-77
2022/12/07 23:04:34;;;;;;;60.97;25.08;;;;;;;;;;10379196;28;20009;-75
2022/12/07 23:09:34;;;;;;;64.93;28.52;;;;;;;;;;10380254;28;20044;-79
2022/12/07 23:14:35;;;;;;;65.17;28.67;;;;;;;;;;10362552;28;20261;-78
2022/12/07 23:19:35;;;;;;;68.70;29.88;;;;;;;;;;10349073;28;20104;-74
2022/12/07 23:24:36;;;;;;;69.75;27.70;;;;;;;;;;10376145;28;20025;-75
2022/12/07 23:29:36;;;;;;;70.70;29.23;;;;;;;;;;10372009;28;20025;-75
2022/12/07 23:34:37;;;;;;;66.05;28.23;;;;;;;;;;10378818;28;20351;-76
2022/12/07 23:39:38;;;;;;;69.68;28.27;;;;;;;;;;10397366;28;20029;-76
2022/12/07 23:44:38;;;;;;;69.00;29.63;;;;;;;;;;10383704;28;20032;-75
2022/12/07 23:49:38;;;;;;;70.70;29.07;;;;;;;;;;10404627;28;20013;-77
2022/12/07 23:54:39;;;;;;;74.63;29.55;;;;;;;;;;10387099;28;20269;-75
2022/12/07 23:59:39;;;;;;;82.82;32.55;;;;;;;;;;10379743;28;20024;-79
